Time;durP1;ratioP1;P1;durP2;ratioP2;P2;SDS_P1;SDS_P2;PMS_P1;PMS_P2;Temp;Humidity;BMP_temperature;BMP_pressure;BME280_temperature;BME280_humidity;BME280_pressure;Samples;Min_cycle;Max_cycle;Signal;HPM_P1;HPM_P2
2023/05/26 00:01:18;;;;;;;21.00;6.90;;;10.30;1.00;;;;;;6144590;23;20155;-83
2023/05/26 00:03:48;;;;;;;16.43;6.77;;;10.10;1.00;;;;;;6144825;23;20167;-80
2023/05/26 00:06:14;;;;;;;20.13;7.70;;;9.90;1.00;;;;;;6119330;23;20508;-79
2023/05/26 00:08:40;;;;;;;22.73;7.27;;;9.80;1.00;;;;;;6145058;23;20588;-81
2023/05/26 00:11:06;;;;;;;20.70;7.70;;;9.80;1.00;;;;;;6144525;23;20576;-80
2023/05/26 00:13:33;;;;;;;17.50;6.87;;;9.80;94.80;;;;;;6118879;23;20247;-80
2023/05/26 00:15:58;;;;;;;17.63;7.33;;;9.80;99.90;;;;;;6118295;23;20624;-81
2023/05/26 00:18:27;;;;;;;17.97;7.03;;;9.60;99.90;;;;;;6118728;23;20642;-82
2023/05/26 00:20:53;;;;;;;19.57;6.87;;;9.70;99.90;;;;;;6118273;23;20242;-81
2023/05/26 00:23:18;;;;;;;17.70;6.93;;;9.80;99.90;;;;;;6118687;23;20159;-81
2023/05/26 00:25:44;;;;;;;20.97;7.27;;;9.80;99.90;;;;;;6145368;23;20156;-80
2023/05/26 00:28:09;;;;;;;21.87;7.07;;;9.80;99.90;;;;;;6118192;23;20171;-81
2023/05/26 00:30:35;;;;;;;22.03;7.13;;;9.80;91.20;;;;;;6144566;23;20672;-81
2023/05/26 00:33:01;;;;;;;17.47;6.87;;;9.90;1.00;;;;;;6118130;23;20160;-79
2023/05/26 00:35:26;;;;;;;19.67;6.63;;;9.90;1.00;;;;;;6118818;23;20159;-79
2023/05/26 00:37:52;;;;;;;23.67;7.33;;;9.90;1.00;;;;;;6118038;23;20176;-83
2023/05/26 00:40:18;;;;;;;20.77;6.03;;;9.90;1.00;;;;;;6118457;23;20186;-82
2023/05/26 00:42:43;;;;;;;23.17;6.60;;;9.80;1.00;;;;;;6118372;23;20175;-81
2023/05/26 00:45:10;;;;;;;18.60;6.80;;;9.70;1.00;;;;;;6118353;23;20164;-80
2023/05/26 00:47:35;;;;;;;17.73;6.23;;;9.70;1.00;;;;;;6118644;23;20167;-81
2023/05/26 00:50:02;;;;;;;17.00;6.17;;;9.70;1.00;;;;;;6118018;23;20247;-79
2023/05/26 00:52:29;;;;;;;22.10;6.80;;;9.60;48.50;;;;;;6118302;23;20226;-80
2023/05/26 00:54:55;;;;;;;24.07;7.40;;;9.70;99.90;;;;;;6118276;23;20247;-81
2023/05/26 00:57:21;;;;;;;21.53;6.83;;;9.80;1.00;;;;;;6118454;23;20482;-80
2023/05/26 00:59:47;;;;;;;18.03;6.83;;;10.40;1.00;;;;;;6118126;23;20183;-81
2023/05/26 01:02:14;;;;;;;21.07;6.47;;;9.70;1.00;;;;;;6143978;23;20163;-81
2023/05/26 01:04:41;;;;;;;19.37;6.40;;;9.70;1.00;;;;;;6144431;23;20156;-80
2023/05/26 01:07:07;;;;;;;24.40;6.50;;;9.70;1.00;;;;;;6118118;23;20252;-80
2023/05/26 01:09:33;;;;;;;22.93;6.40;;;9.70;1.00;;;;;;6117776;23;20249;-81
2023/05/26 01:12:14;;;;;;;20.60;6.23;;;9.70;1.00;;;;;;6144111;23;20156;-80
2023/05/26 01:14:49;;;;;;;19.07;6.20;;;9.50;1.00;;;;;;6118417;23;20156;-80
2023/05/26 01:17:32;;;;;;;17.50;5.87;;;9.40;1.00;;;;;;6118105;23;20184;-80
2023/05/26 01:20:15;;;;;;;17.90;6.70;;;9.30;99.90;;;;;;6118262;23;20210;-79
2023/05/26 01:22:41;;;;;;;19.53;6.67;;;9.20;99.90;;;;;;6118252;23;20160;-81
2023/05/26 01:25:33;;;;;;;22.20;6.50;;;9.20;99.90;;;;;;6118502;23;20492;-82
2023/05/26 01:28:32;;;;;;;24.63;7.20;;;9.10;99.90;;;;;;6144503;23;20148;-79
2023/05/26 01:30:59;;;;;;;20.43;6.63;;;9.00;1.00;;;;;;6040025;23;20381;-82
2023/05/26 01:33:24;;;;;;;17.53;6.53;;;9.00;1.00;;;;;;6118207;23;20159;-80
2023/05/26 01:35:50;;;;;;;23.30;6.30;;;9.00;1.00;;;;;;6144408;23;20308;-81
2023/05/26 01:38:16;;;;;;;21.53;7.03;;;8.90;99.90;;;;;;6144520;23;20171;-81
2023/05/26 01:40:44;;;;;;;22.70;7.00;;;8.90;1.00;;;;;;6144228;23;20175;-78
2023/05/26 01:43:52;;;;;;;19.57;6.60;;;8.80;1.00;;;;;;6117812;23;20498;-81
2023/05/26 01:46:29;;;;;;;24.37;6.60;;;8.80;1.00;;;;;;6050700;23;20167;-79
2023/05/26 01:48:58;;;;;;;17.43;6.20;;;8.90;1.00;;;;;;6143873;23;20253;-78
2023/05/26 01:51:26;;;;;;;23.17;6.70;;;8.70;1.00;;;;;;6143774;23;20163;-81
2023/05/26 01:53:55;;;;;;;18.77;6.20;;;8.70;1.00;;;;;;6143980;23;20156;-82
2023/05/26 01:56:21;;;;;;;19.87;7.00;;;8.70;1.00;;;;;;6118343;23;20163;-81
2023/05/26 01:58:49;;;;;;;26.07;6.90;;;8.80;30.90;;;;;;6117383;23;20195;-81
2023/05/26 02:01:15;;;;;;;18.60;7.40;;;8.80;99.90;;;;;;6117566;23;20574;-81
2023/05/26 02:03:42;;;;;;;16.77;6.40;;;8.80;1.00;;;;;;6118222;23;20188;-81
2023/05/26 02:06:08;;;;;;;20.90;5.80;;;8.80;1.00;;;;;;6117561;23;20183;-81
2023/05/26 02:08:37;;;;;;;20.37;6.20;;;8.80;1.00;;;;;;6143756;23;20152;-82
2023/05/26 02:11:02;;;;;;;19.13;6.07;;;8.90;1.00;;;;;;6143762;23;20172;-81
2023/05/26 02:13:28;;;;;;;18.67;5.70;;;8.90;1.00;;;;;;6144936;23;20163;-81
2023/05/26 02:15:53;;;;;;;18.27;6.07;;;8.90;1.00;;;;;;6120064;23;20154;-81
2023/05/26 02:18:21;;;;;;;24.43;6.30;;;8.90;1.00;;;;;;6119506;23;20156;-81
2023/05/26 02:20:47;;;;;;;18.87;5.63;;;9.00;1.00;;;;;;6119469;23;20187;-81
2023/05/26 02:23:12;;;;;;;20.53;6.13;;;8.90;99.90;;;;;;6145394;23;20155;-81
2023/05/26 02:25:38;;;;;;;21.03;5.70;;;8.90;1.00;;;;;;6145584;23;20194;-82
2023/05/26 02:28:04;;;;;;;15.70;5.20;;;8.90;99.90;;;;;;6146001;23;20628;-81
2023/05/26 02:30:29;;;;;;;18.53;5.40;;;9.00;1.00;;;;;;6145568;23;20357;-81
2023/05/26 02:32:55;;;;;;;18.53;5.73;;;8.90;1.00;;;;;;6119328;23;20553;-80
2023/05/26 02:35:20;;;;;;;14.17;4.33;;;8.90;99.90;;;;;;6119527;23;20160;-81
2023/05/26 02:37:47;;;;;;;21.07;6.40;;;9.20;99.90;;;;;;6119168;23;20720;-81
2023/05/26 02:40:12;;;;;;;24.90;6.87;;;8.70;99.90;;;;;;6119397;23;20190;-81
2023/05/26 02:42:38;;;;;;;20.13;6.63;;;8.70;99.90;;;;;;6145237;23;20509;-81
2023/05/26 02:45:04;;;;;;;19.63;6.03;;;8.70;99.90;;;;;;6119158;23;20164;-81
2023/05/26 02:47:30;;;;;;;17.43;6.13;;;8.70;99.90;;;;;;6119464;23;20159;-81
2023/05/26 02:49:55;;;;;;;20.17;6.17;;;8.60;99.90;;;;;;6119174;23;20206;-81
2023/05/26 02:52:22;;;;;;;22.23;6.10;;;8.60;1.00;;;;;;6145346;23;20152;-81
2023/05/26 02:54:48;;;;;;;21.87;6.60;;;8.70;1.00;;;;;;6119256;23;20164;-82
2023/05/26 02:57:13;;;;;;;20.33;5.77;;;8.60;99.90;;;;;;6145277;23;20230;-81
2023/05/26 02:59:39;;;;;;;20.30;5.57;;;8.60;99.90;;;;;;6119195;23;20183;-81
2023/05/26 03:02:04;;;;;;;16.90;5.40;;;8.60;1.00;;;;;;6118590;23;20171;-82
2023/05/26 03:04:30;;;;;;;19.73;5.63;;;8.60;1.00;;;;;;6119465;23;20168;-82
2023/05/26 03:06:55;;;;;;;16.87;5.23;;;8.60;1.00;;;;;;6145101;23;20218;-81
2023/05/26 03:09:21;;;;;;;19.40;5.83;;;8.60;1.00;;;;;;6145599;23;20198;-81
2023/05/26 03:11:46;;;;;;;13.37;4.70;;;8.70;1.00;;;;;;6118973;23;20247;-82
2023/05/26 03:14:12;;;;;;;20.83;5.37;;;8.70;99.90;;;;;;6145464;23;20206;-82
2023/05/26 03:16:38;;;;;;;18.63;5.67;;;8.60;99.90;;;;;;6119104;23;20641;-81
2023/05/26 03:19:03;;;;;;;15.87;5.17;;;8.60;99.90;;;;;;6144908;23;20254;-81
2023/05/26 03:21:29;;;;;;;24.03;5.73;;;8.60;99.90;;;;;;6145133;23;20156;-81
2023/05/26 03:23:55;;;;;;;22.17;5.97;;;8.50;99.90;;;;;;6118769;23;20167;-82
2023/05/26 03:26:22;;;;;;;22.00;5.70;;;8.30;1.00;;;;;;6144996;23;20222;-81
2023/05/26 03:28:47;;;;;;;17.03;5.53;;;8.30;99.90;;;;;;6144565;23;20216;-83
2023/05/26 03:31:13;;;;;;;16.27;5.30;;;8.30;99.90;;;;;;6119100;23;20159;-82
2023/05/26 03:33:38;;;;;;;17.63;6.23;;;8.40;99.90;;;;;;6145147;23;20567;-81
2023/05/26 03:36:05;;;;;;;17.47;4.70;;;8.40;99.90;;;;;;6145316;23;20191;-84
2023/05/26 03:38:30;;;;;;;16.97;4.73;;;8.40;99.90;;;;;;6144976;23;20226;-81
2023/05/26 03:40:56;;;;;;;19.00;6.13;;;8.40;1.00;;;;;;6118827;23;20183;-81
2023/05/26 03:43:22;;;;;;;16.57;5.20;;;8.40;1.00;;;;;;6144889;23;20155;-81
2023/05/26 03:45:47;;;;;;;18.17;5.63;;;8.50;99.90;;;;;;6118562;23;20627;-81
2023/05/26 03:48:14;;;;;;;14.87;4.83;;;8.50;99.90;;;;;;6118793;23;20520;-81
2023/05/26 03:50:41;;;;;;;15.60;5.57;;;8.50;1.00;;;;;;6118300;23;20199;-81
2023/05/26 03:53:07;;;;;;;16.47;5.50;;;8.60;1.00;;;;;;6118278;23;20314;-81
2023/05/26 03:55:33;;;;;;;15.23;5.10;;;8.50;1.00;;;;;;6118652;23;20599;-81
2023/05/26 03:57:59;;;;;;;18.67;5.53;;;8.60;1.00;;;;;;6118347;23;20171;-82
2023/05/26 04:00:30;;;;;;;15.33;5.23;;;8.70;1.00;;;;;;6145280;23;20562;-81
2023/05/26 04:02:55;;;;;;;17.73;4.93;;;8.70;1.00;;;;;;6118448;23;20623;-81
2023/05/26 04:05:21;;;;;;;17.80;5.33;;;8.70;1.00;;;;;;6118279;23;20166;-82
2023/05/26 04:07:47;;;;;;;14.43;5.13;;;8.70;1.00;;;;;;6118527;23;20501;-83
2023/05/26 04:10:12;;;;;;;16.90;5.17;;;8.80;1.00;;;;;;6118261;23;20302;-82
2023/05/26 04:12:38;;;;;;;15.17;4.87;;;8.80;1.00;;;;;;6118269;23;20166;-82
2023/05/26 04:15:04;;;;;;;18.20;5.23;;;8.90;1.00;;;;;;6118339;23;20167;-81
2023/05/26 04:17:30;;;;;;;17.97;5.10;;;8.90;1.00;;;;;;6118200;23;20160;-82
2023/05/26 04:19:56;;;;;;;17.17;5.10;;;8.80;1.00;;;;;;6118349;23;20191;-81
2023/05/26 04:22:21;;;;;;;20.47;5.50;;;8.90;1.00;;;;;;6144712;23;20604;-81
2023/05/26 04:24:47;;;;;;;18.87;5.63;;;9.00;1.00;;;;;;6144745;23;20167;-81
2023/05/26 04:27:12;;;;;;;19.90;5.67;;;9.00;1.00;;;;;;6118030;23;20167;-81
2023/05/26 04:29:38;;;;;;;14.27;4.77;;;9.00;1.00;;;;;;6144350;23;20258;-81
2023/05/26 04:32:04;;;;;;;18.97;5.80;;;9.00;1.00;;;;;;6117903;23;20183;-81
2023/05/26 04:34:30;;;;;;;19.33;5.37;;;9.10;1.00;;;;;;6144417;23;20764;-81
2023/05/26 04:37:03;;;;;;;21.47;5.37;;;9.10;1.00;;;;;;6117624;23;20182;-82
2023/05/26 04:39:28;;;;;;;19.30;5.27;;;9.10;1.00;;;;;;6144443;23;20175;-81
2023/05/26 04:41:54;;;;;;;15.90;4.93;;;9.10;1.00;;;;;;6117823;23;20226;-81
2023/05/26 04:44:19;;;;;;;19.07;5.70;;;9.10;1.00;;;;;;6119260;23;20167;-81
2023/05/26 04:46:45;;;;;;;18.50;5.50;;;9.30;1.00;;;;;;6144535;23;20161;-81
2023/05/26 04:49:12;;;;;;;17.60;5.53;;;9.50;99.90;;;;;;6144213;23;20240;-81
2023/05/26 04:51:38;;;;;;;18.17;5.00;;;9.70;99.90;;;;;;6117804;23;20668;-81
2023/05/26 04:54:03;;;;;;;19.67;5.37;;;10.00;99.90;;;;;;6144338;23;20156;-81
2023/05/26 04:56:29;;;;;;;17.80;4.97;;;9.50;99.90;;;;;;6144333;23;20220;-81
2023/05/26 04:58:56;;;;;;;21.17;5.40;;;10.20;99.90;;;;;;6117901;23;20234;-82
2023/05/26 05:01:21;;;;;;;18.13;5.33;;;10.70;99.90;;;;;;6118187;23;20262;-81
2023/05/26 05:03:47;;;;;;;15.37;4.93;;;10.90;99.90;;;;;;6144345;23;20620;-81
2023/05/26 05:06:12;;;;;;;15.83;4.73;;;11.20;99.90;;;;;;6144187;23;20163;-82
2023/05/26 05:08:38;;;;;;;18.00;5.87;;;11.30;99.90;;;;;;6144229;23;20227;-81
2023/05/26 05:11:04;;;;;;;16.97;5.60;;;11.70;99.90;;;;;;6144064;23;20250;-81
2023/05/26 05:13:32;;;;;;;21.85;5.90;;;12.10;99.90;;;;;;6117729;23;20171;-82
2023/05/26 05:15:58;;;;;;;16.65;5.20;;;12.50;90.50;;;;;;6117710;23;20190;-80
2023/05/26 05:18:23;;;;;;;16.23;5.40;;;13.20;42.90;;;;;;6118099;23;20179;-81
2023/05/26 05:20:49;;;;;;;23.20;5.88;;;12.60;34.30;;;;;;6143726;23;20182;-81
2023/05/26 05:23:14;;;;;;;18.52;5.70;;;12.50;29.80;;;;;;6143945;23;20264;-81
2023/05/26 05:25:42;;;;;;;17.98;5.57;;;12.10;31.20;;;;;;6117552;23;20205;-81
2023/05/26 05:28:09;;;;;;;18.02;5.70;;;12.00;43.30;;;;;;6144090;23;21006;-81
2023/05/26 05:30:34;;;;;;;18.55;5.43;;;12.10;54.20;;;;;;6144394;23;20640;-82
2023/05/26 05:33:00;;;;;;;17.10;5.15;;;12.20;48.10;;;;;;6144268;23;20151;-80
2023/05/26 05:35:25;;;;;;;19.02;5.28;;;12.30;40.70;;;;;;6144385;23;20155;-82
2023/05/26 05:37:55;;;;;;;17.83;5.20;;;12.70;26.80;;;;;;6117528;23;20635;-82
2023/05/26 05:40:21;;;;;;;16.52;5.72;;;13.00;18.60;;;;;;6143721;23;20168;-81
2023/05/26 05:42:47;;;;;;;16.92;5.13;;;13.30;4.50;;;;;;6143957;23;20167;-82
2023/05/26 05:45:12;;;;;;;15.90;4.88;;;14.10;1.00;;;;;;6117469;23;20164;-82
2023/05/26 05:47:38;;;;;;;19.13;6.28;;;14.90;1.00;;;;;;6118209;23;20175;-82
2023/05/26 05:50:05;;;;;;;18.48;5.90;;;14.90;1.00;;;;;;6120144;23;20275;-82
2023/05/26 05:52:30;;;;;;;23.05;6.03;;;14.30;1.00;;;;;;6145225;23;20198;-82
2023/05/26 05:54:57;;;;;;;17.42;5.90;;;14.10;1.00;;;;;;6145906;23;20152;-82
2023/05/26 05:57:22;;;;;;;16.08;6.00;;;14.40;1.00;;;;;;6145935;23;20222;-82
2023/05/26 05:59:48;;;;;;;17.63;4.93;;;14.90;1.00;;;;;;6120080;23;20222;-81
2023/05/26 06:02:14;;;;;;;17.48;5.47;;;14.90;1.00;;;;;;6145640;23;20202;-82
2023/05/26 06:04:39;;;;;;;18.23;5.80;;;14.60;1.00;;;;;;6146074;23;20231;-81
2023/05/26 06:07:05;;;;;;;17.77;5.53;;;14.70;1.00;;;;;;6119615;23;20639;-81
2023/05/26 06:09:30;;;;;;;17.23;5.90;;;14.70;1.00;;;;;;6145601;23;20234;-82
2023/05/26 06:11:56;;;;;;;16.75;5.32;;;15.70;1.00;;;;;;6119337;23;20578;-82
2023/05/26 06:14:22;;;;;;;14.45;4.72;;;15.70;1.00;;;;;;6119988;23;20160;-81
2023/05/26 06:16:47;;;;;;;16.77;5.80;;;15.10;1.00;;;;;;6120136;23;20466;-82
2023/05/26 06:19:13;;;;;;;21.35;5.78;;;14.30;1.00;;;;;;6146299;23;20210;-82
2023/05/26 06:21:38;;;;;;;16.55;5.10;;;14.00;1.00;;;;;;6119450;23;20171;-82
2023/05/26 06:24:04;;;;;;;17.05;5.47;;;13.60;1.00;;;;;;6145695;23;20187;-82
2023/05/26 06:26:30;;;;;;;17.73;6.13;;;13.10;1.00;;;;;;6119569;23;20171;-82
2023/05/26 06:28:55;;;;;;;17.40;5.47;;;13.40;1.00;;;;;;6144977;23;20163;-81
2023/05/26 06:31:21;;;;;;;17.63;6.30;;;13.10;1.00;;;;;;6145926;23;20545;-81
2023/05/26 06:33:46;;;;;;;20.67;6.18;;;12.90;1.00;;;;;;6119007;23;20556;-82
2023/05/26 06:36:12;;;;;;;15.70;5.13;;;12.80;1.00;;;;;;6145604;23;20541;-81
2023/05/26 06:38:37;;;;;;;18.98;5.40;;;13.20;1.00;;;;;;6145234;23;20167;-81
2023/05/26 06:41:03;;;;;;;15.25;5.18;;;13.50;1.00;;;;;;6119319;23;20183;-81
2023/05/26 06:43:29;;;;;;;20.77;5.80;;;13.60;1.00;;;;;;6145096;23;20178;-81
2023/05/26 06:45:54;;;;;;;21.02;5.55;;;13.50;1.00;;;;;;6120130;23;20608;-81
2023/05/26 06:48:20;;;;;;;17.55;5.97;;;13.20;1.00;;;;;;6119401;23;20156;-81
2023/05/26 06:50:45;;;;;;;21.35;6.43;;;13.30;1.00;;;;;;6145161;23;20207;-82
2023/05/26 06:53:11;;;;;;;16.02;5.55;;;12.90;1.00;;;;;;6118911;23;20206;-82
2023/05/26 06:55:37;;;;;;;18.50;6.63;;;13.00;1.00;;;;;;6119377;23;20160;-81
2023/05/26 06:58:02;;;;;;;16.35;5.72;;;13.20;1.00;;;;;;6119045;23;20156;-81
2023/05/26 07:00:30;;;;;;;21.17;6.00;;;13.20;1.00;;;;;;6118527;23;20710;-81
2023/05/26 07:02:55;;;;;;;20.15;6.57;;;13.00;1.00;;;;;;6119208;23;20412;-81
2023/05/26 07:05:21;;;;;;;22.23;6.68;;;13.20;1.00;;;;;;6119111;23;20159;-81
2023/05/26 07:07:46;;;;;;;18.70;5.72;;;13.20;1.00;;;;;;6119325;23;20169;-81
2023/05/26 07:10:12;;;;;;;23.08;6.53;;;13.40;1.00;;;;;;6118705;23;20195;-81
2023/05/26 07:12:40;;;;;;;17.92;5.60;;;13.10;1.00;;;;;;6145205;23;20185;-80
2023/05/26 07:15:06;;;;;;;20.77;6.15;;;12.80;1.00;;;;;;6119020;23;20168;-81
2023/05/26 07:17:31;;;;;;;20.60;5.55;;;13.20;1.00;;;;;;6118582;23;20554;-81
2023/05/26 07:19:57;;;;;;;16.20;5.40;;;13.10;1.00;;;;;;6119526;23;20185;-82
2023/05/26 07:22:22;;;;;;;17.02;5.20;;;13.40;1.00;;;;;;6145268;23;20589;-81
2023/05/26 07:24:48;;;;;;;18.48;5.68;;;13.70;1.00;;;;;;6144982;23;20155;-81
2023/05/26 07:27:13;;;;;;;20.55;5.97;;;13.60;1.00;;;;;;6145032;23;20234;-81
2023/05/26 07:29:39;;;;;;;21.30;6.05;;;13.70;1.00;;;;;;6144901;23;20214;-80
2023/05/26 07:32:05;;;;;;;18.85;6.03;;;13.60;1.00;;;;;;6118758;23;20163;-82
2023/05/26 07:34:30;;;;;;;17.20;5.97;;;13.90;1.00;;;;;;6118864;23;20168;-81
2023/05/26 07:36:56;;;;;;;19.17;6.30;;;13.80;1.00;;;;;;6118953;23;20744;-81
2023/05/26 07:39:21;;;;;;;18.98;5.53;;;13.90;1.00;;;;;;6118522;23;20567;-81
2023/05/26 07:41:47;;;;;;;20.35;6.18;;;14.10;1.00;;;;;;6144846;23;20160;-83
2023/05/26 07:44:12;;;;;;;17.58;5.97;;;14.10;1.00;;;;;;6118550;23;20429;-81
2023/05/26 07:46:38;;;;;;;16.42;5.68;;;14.20;1.00;;;;;;6145522;23;20290;-81
2023/05/26 07:49:04;;;;;;;14.93;5.03;;;14.40;1.00;;;;;;6144491;23;20187;-81
2023/05/26 07:51:31;;;;;;;18.83;5.80;;;14.70;1.00;;;;;;6145249;23;20159;-81
2023/05/26 07:53:57;;;;;;;17.10;5.32;;;14.80;1.00;;;;;;6144424;23;20152;-81
2023/05/26 07:56:22;;;;;;;18.52;5.95;;;14.50;1.00;;;;;;6144857;23;20160;-81
2023/05/26 07:58:48;;;;;;;17.48;5.30;;;14.30;1.00;;;;;;6118626;23;20626;-81
2023/05/26 08:01:13;;;;;;;22.65;5.95;;;13.70;1.00;;;;;;6118596;23;20151;-81
2023/05/26 08:03:39;;;;;;;14.73;5.18;;;14.00;1.00;;;;;;6118284;23;20215;-81
2023/05/26 08:06:05;;;;;;;15.63;4.95;;;14.60;1.00;;;;;;6118523;23;20167;-81
2023/05/26 08:08:30;;;;;;;15.27;5.45;;;15.10;1.00;;;;;;6145279;23;20234;-81
2023/05/26 08:10:56;;;;;;;19.38;5.75;;;15.00;1.00;;;;;;6118203;23;20202;-81
2023/05/26 08:13:21;;;;;;;16.42;5.75;;;14.90;1.00;;;;;;6144532;23;20809;-81
2023/05/26 08:15:47;;;;;;;18.88;6.15;;;15.10;1.00;;;;;;6118162;23;20159;-82
2023/05/26 08:18:13;;;;;;;17.42;5.63;;;15.10;1.00;;;;;;6144500;23;20179;-81
2023/05/26 08:20:39;;;;;;;17.58;6.07;;;15.10;1.00;;;;;;6144557;23;20179;-81
2023/05/26 08:23:04;;;;;;;17.00;5.35;;;15.50;1.00;;;;;;6118478;23;20178;-81
2023/05/26 08:25:30;;;;;;;19.77;5.97;;;15.80;1.00;;;;;;6144675;23;20159;-82
2023/05/26 08:27:55;;;;;;;14.57;5.38;;;14.90;1.00;;;;;;6118330;23;20172;-81
2023/05/26 08:30:21;;;;;;;18.98;5.50;;;15.20;1.00;;;;;;6143973;23;20187;-83
2023/05/26 08:32:47;;;;;;;14.38;5.22;;;15.30;1.00;;;;;;6144168;23;20566;-81
2023/05/26 08:35:12;;;;;;;15.23;5.15;;;15.70;1.00;;;;;;6145123;23;20471;-81
2023/05/26 08:37:38;;;;;;;19.08;6.28;;;15.50;1.00;;;;;;6118100;23;20623;-81
2023/05/26 08:40:05;;;;;;;24.48;8.63;;;15.40;1.00;;;;;;6144284;23;20172;-81
2023/05/26 08:42:36;;;;;;;19.90;6.13;;;15.40;1.00;;;;;;6143979;23;20231;-82
2023/05/26 08:45:02;;;;;;;14.18;5.45;;;15.20;1.00;;;;;;6118001;23;20179;-81
2023/05/26 08:47:32;;;;;;;21.98;5.68;;;14.90;1.00;;;;;;6118074;23;20214;-81
2023/05/26 08:50:03;;;;;;;20.63;6.15;;;14.70;1.00;;;;;;6118445;23;20522;-81
2023/05/26 08:52:29;;;;;;;20.23;5.85;;;14.60;1.00;;;;;;6144410;23;20250;-81
2023/05/26 08:54:55;;;;;;;21.45;6.00;;;14.60;1.00;;;;;;6118179;23;20160;-81
2023/05/26 08:57:20;;;;;;;21.58;6.00;;;14.20;1.00;;;;;;6144084;23;20218;-81
2023/05/26 08:59:47;;;;;;;20.90;5.90;;;14.50;1.00;;;;;;6144074;23;20355;-81
2023/05/26 09:02:13;;;;;;;18.13;5.28;;;14.70;1.00;;;;;;6117593;23;20163;-81
2023/05/26 09:04:38;;;;;;;19.40;6.03;;;14.70;1.00;;;;;;6144217;23;20152;-81
2023/05/26 09:07:08;;;;;;;16.02;5.85;;;14.80;1.00;;;;;;6117972;23;20191;-81
2023/05/26 09:09:34;;;;;;;19.05;5.90;;;14.90;1.00;;;;;;6143915;23;20191;-82
2023/05/26 09:12:00;;;;;;;21.98;5.82;;;14.70;1.00;;;;;;6117975;23;20238;-81
2023/05/26 09:14:25;;;;;;;17.38;5.72;;;14.70;1.00;;;;;;6118197;23;20682;-83
2023/05/26 09:16:54;;;;;;;17.33;5.38;;;14.90;1.00;;;;;;6144226;23;20598;-82
2023/05/26 09:19:20;;;;;;;18.27;6.38;;;15.20;1.00;;;;;;6118142;23;20671;-81
2023/05/26 09:21:50;;;;;;;14.45;5.07;;;15.30;1.00;;;;;;6117289;23;20171;-82
2023/05/26 09:24:18;;;;;;;17.02;5.68;;;15.50;1.00;;;;;;6117501;23;20178;-81
2023/05/26 09:26:48;;;;;;;19.05;5.70;;;15.60;1.00;;;;;;6117692;23;20167;-81
2023/05/26 09:29:14;;;;;;;18.88;6.00;;;15.70;1.00;;;;;;6117770;23;20268;-81
2023/05/26 09:31:47;;;;;;;17.77;5.78;;;15.90;1.00;;;;;;6144374;23;20150;-81
2023/05/26 09:34:15;;;;;;;18.27;5.68;;;16.20;1.00;;;;;;6143812;23;20155;-81
2023/05/26 09:36:41;;;;;;;17.58;5.70;;;16.60;1.00;;;;;;6117712;23;20175;-81
2023/05/26 09:39:09;;;;;;;16.05;5.13;;;16.90;1.00;;;;;;6117700;23;20184;-81
2023/05/26 09:41:35;;;;;;;15.95;5.45;;;16.10;1.00;;;;;;6143758;23;20162;-81
2023/05/26 09:44:15;;;;;;;16.77;5.35;;;16.00;1.00;;;;;;6117658;23;20164;-81
2023/05/26 09:46:42;;;;;;;15.52;5.07;;;15.90;1.00;;;;;;6143937;23;20603;-81
2023/05/26 09:49:16;;;;;;;18.70;5.63;;;16.00;1.00;;;;;;6117547;23;20191;-81
2023/05/26 09:51:44;;;;;;;19.00;5.72;;;16.20;1.00;;;;;;6144096;23;20144;-81
2023/05/26 09:54:10;;;;;;;14.63;5.20;;;16.40;1.00;;;;;;6144255;23;20151;-81
2023/05/26 09:56:50;;;;;;;21.17;5.50;;;16.50;1.00;;;;;;6117570;23;20163;-81
2023/05/26 09:59:16;;;;;;;18.55;5.82;;;16.30;1.00;;;;;;6117586;23;20286;-82
2023/05/26 10:01:43;;;;;;;16.83;5.50;;;16.50;1.00;;;;;;6143935;23;20163;-82
2023/05/26 10:04:10;;;;;;;19.10;5.20;;;16.70;1.00;;;;;;6143810;23;20155;-82
2023/05/26 10:06:36;;;;;;;19.08;5.78;;;16.90;1.00;;;;;;6143609;23;20518;-82
2023/05/26 10:09:06;;;;;;;18.25;6.05;;;16.80;1.00;;;;;;6143804;23;20597;-82
2023/05/26 10:11:43;;;;;;;17.33;5.65;;;16.40;1.00;;;;;;6144634;23;20187;-81
2023/05/26 10:14:10;;;;;;;14.65;4.80;;;16.30;1.00;;;;;;6118198;23;20179;-81
2023/05/26 10:16:37;;;;;;;15.07;4.75;;;16.60;1.00;;;;;;6117760;23;20710;-81
2023/05/26 10:19:03;;;;;;;15.85;4.95;;;17.20;1.00;;;;;;6117313;23;20759;-81
2023/05/26 10:21:35;;;;;;;15.50;4.88;;;16.60;1.00;;;;;;6144020;23;20156;-81
2023/05/26 10:24:10;;;;;;;17.15;5.10;;;16.60;1.00;;;;;;6117532;23;20224;-81
2023/05/26 10:27:06;;;;;;;15.38;4.93;;;16.50;1.00;;;;;;6118258;23;20147;-81
2023/05/26 10:29:46;;;;;;;15.60;4.78;;;16.40;1.00;;;;;;6141195;23;20345;-81
2023/05/26 10:32:41;;;;;;;14.38;5.18;;;16.40;1.00;;;;;;6117041;23;20618;-82
2023/05/26 10:35:23;;;;;;;12.13;4.30;;;16.70;1.00;;;;;;6102273;23;20160;-81
2023/05/26 10:37:54;;;;;;;14.23;4.72;;;16.70;1.00;;;;;;6119077;23;20183;-82
2023/05/26 10:40:40;;;;;;;11.98;4.47;;;16.90;1.00;;;;;;6145639;23;20765;-81
2023/05/26 10:43:18;;;;;;;13.90;4.82;;;17.00;1.00;;;;;;6119607;23;20167;-81
2023/05/26 10:46:00;;;;;;;17.25;5.43;;;16.90;1.00;;;;;;6119272;23;20627;-81
2023/05/26 10:48:40;;;;;;;13.52;4.63;;;16.70;1.00;;;;;;6119051;23;20159;-81
2023/05/26 10:51:07;;;;;;;15.57;5.20;;;16.80;1.00;;;;;;6145308;23;20318;-81
2023/05/26 10:53:42;;;;;;;13.38;4.30;;;16.90;1.00;;;;;;6119144;23;20163;-81
2023/05/26 10:56:12;;;;;;;16.45;4.78;;;16.80;1.00;;;;;;6118813;23;20151;-81
2023/05/26 10:58:44;;;;;;;13.73;4.70;;;16.50;1.00;;;;;;6145142;23;20211;-81
2023/05/26 11:01:20;;;;;;;14.07;4.70;;;16.60;1.00;;;;;;6145016;23;20751;-81
2023/05/26 11:04:04;;;;;;;12.02;4.25;;;16.60;1.00;;;;;;6118668;23;20155;-81
2023/05/26 11:06:52;;;;;;;12.95;3.97;;;16.60;1.00;;;;;;6145438;23;20140;-82
2023/05/26 11:09:22;;;;;;;14.27;4.22;;;16.50;1.00;;;;;;6119327;23;20529;-82
2023/05/26 11:11:53;;;;;;;12.65;4.15;;;16.70;1.00;;;;;;6145120;23;20156;-81
2023/05/26 11:14:29;;;;;;;13.85;4.75;;;16.50;1.00;;;;;;6145552;23;20175;-81
2023/05/26 11:16:57;;;;;;;10.77;3.88;;;16.50;1.00;;;;;;6119166;23;20471;-81
2023/05/26 11:19:31;;;;;;;12.95;4.63;;;16.60;1.00;;;;;;6118697;23;20326;-81
2023/05/26 11:21:57;;;;;;;15.40;4.43;;;16.60;1.00;;;;;;6144869;23;20148;-81
2023/05/26 11:24:24;;;;;;;13.70;4.55;;;16.50;1.00;;;;;;6118810;23;20482;-82
2023/05/26 11:26:50;;;;;;;12.25;4.25;;;16.60;1.00;;;;;;6118983;23;20242;-81
2023/05/26 11:29:16;;;;;;;11.93;4.25;;;16.70;1.00;;;;;;6118568;23;20600;-81
2023/05/26 11:31:46;;;;;;;11.52;4.00;;;16.80;1.00;;;;;;6145129;23;20179;-82
2023/05/26 11:34:12;;;;;;;12.38;3.83;;;16.60;1.00;;;;;;6118624;23;20667;-82
2023/05/26 11:36:39;;;;;;;10.98;3.85;;;16.70;1.00;;;;;;6119271;23;20199;-81
2023/05/26 11:39:05;;;;;;;12.60;4.25;;;16.70;1.00;;;;;;6118571;23;20459;-81
2023/05/26 11:41:31;;;;;;;10.55;4.10;;;16.90;1.00;;;;;;6118860;23;20261;-81
2023/05/26 11:43:57;;;;;;;14.65;4.45;;;16.90;1.00;;;;;;6144769;23;20159;-81
2023/05/26 11:46:27;;;;;;;14.65;4.30;;;17.10;1.00;;;;;;6118580;23;20159;-82
2023/05/26 11:48:52;;;;;;;11.75;4.13;;;17.50;1.00;;;;;;6145246;23;20162;-81
2023/05/26 11:51:20;;;;;;;12.93;3.40;;;17.20;1.00;;;;;;6118897;23;20163;-81
2023/05/26 11:53:51;;;;;;;10.65;3.75;;;17.10;1.00;;;;;;6118280;23;20170;-82
2023/05/26 11:56:17;;;;;;;11.85;3.88;;;17.70;1.00;;;;;;6118562;23;20223;-81
2023/05/26 11:58:45;;;;;;;13.35;4.43;;;17.30;1.00;;;;;;6144792;23;20199;-82
2023/05/26 12:01:11;;;;;;;13.30;3.88;;;17.40;1.00;;;;;;6144663;23;20155;-82
2023/05/26 12:03:41;;;;;;;9.88;3.95;;;17.30;1.00;;;;;;6144729;23;20163;-81
2023/05/26 12:06:16;;;;;;;14.63;3.97;;;17.40;1.00;;;;;;6145296;23;20144;-81
2023/05/26 12:08:43;;;;;;;12.48;3.60;;;18.30;1.00;;;;;;6118735;23;20175;-81
2023/05/26 12:11:22;;;;;;;10.73;3.63;;;17.60;1.00;;;;;;6118560;23;20194;-81
2023/05/26 12:13:55;;;;;;;10.57;3.97;;;17.40;1.00;;;;;;6144864;23;20294;-81
2023/05/26 12:16:23;;;;;;;10.75;3.47;;;17.40;1.00;;;;;;6118949;23;20147;-81
2023/05/26 12:18:53;;;;;;;8.30;3.33;;;17.30;1.00;;;;;;6118349;23;20164;-81
2023/05/26 12:21:19;;;;;;;9.60;3.83;;;17.80;1.00;;;;;;6144837;23;20527;-82
2023/05/26 12:23:46;;;;;;;10.05;3.38;;;17.40;1.00;;;;;;6118038;23;20246;-81
2023/05/26 12:26:22;;;;;;;13.65;3.83;;;17.40;1.00;;;;;;6145083;23;20151;-82
2023/05/26 12:29:05;;;;;;;10.32;3.70;;;17.30;1.00;;;;;;6144475;23;20182;-81
2023/05/26 12:31:38;;;;;;;10.93;3.30;;;17.40;1.00;;;;;;6118413;23;20155;-82
2023/05/26 12:34:04;;;;;;;10.85;3.42;;;17.80;1.00;;;;;;6117947;23;20476;-82
2023/05/26 12:36:29;;;;;;;8.75;3.03;;;17.60;1.00;;;;;;6118485;23;20159;-81
2023/05/26 12:38:56;;;;;;;9.13;3.45;;;17.80;1.00;;;;;;6118025;23;20171;-81
2023/05/26 12:41:21;;;;;;;11.98;3.50;;;18.10;1.00;;;;;;6144711;23;20162;-82
2023/05/26 12:43:47;;;;;;;9.70;3.25;;;17.90;1.00;;;;;;6144648;23;20242;-82
2023/05/26 12:46:12;;;;;;;9.73;3.83;;;17.90;1.00;;;;;;6144507;23;20152;-82
2023/05/26 12:48:38;;;;;;;9.00;3.30;;;18.00;1.00;;;;;;6118452;23;20494;-82
2023/05/26 12:51:04;;;;;;;8.93;2.97;;;17.60;1.00;;;;;;6118284;23;20528;-82